Time;durP1;ratioP1;P1;durP2;ratioP2;P2;SDS_P1;SDS_P2;PMS_P1;PMS_P2;Temp;Humidity;BMP_temperature;BMP_pressure;BME280_temperature;BME280_humidity;BME280_pressure;Samples;Min_cycle;Max_cycle;Signal;HPM_P1;HPM_P2
2021/08/22 00:01:55;;;;;;;5.13;3.17;;;;;;;18.34;nan;100508.47;5053953;28;20045;-81
2021/08/22 00:04:20;;;;;;;5.00;2.70;;;;;;;18.34;nan;100493.22;5017331;28;20052;-81
2021/08/22 00:06:46;;;;;;;5.53;2.72;;;;;;;18.26;nan;100493.44;5028776;28;20041;-81
2021/08/22 00:09:11;;;;;;;4.32;2.53;;;;;;;18.19;nan;100488.06;5043598;28;20041;-81
2021/08/22 00:11:37;;;;;;;5.13;2.63;;;;;;;18.12;nan;100481.88;5052737;28;20037;-81
2021/08/22 00:14:02;;;;;;;4.05;2.60;;;;;;;18.10;nan;100480.41;5041985;28;20097;-81
2021/08/22 00:16:28;;;;;;;3.53;2.42;;;;;;;18.13;nan;100477.31;5045329;28;20034;-81
2021/08/22 00:18:54;;;;;;;4.90;2.90;;;;;;;18.08;nan;100490.50;5037081;28;20041;-80
2021/08/22 00:21:20;;;;;;;3.80;2.50;;;;;;;18.03;nan;100491.09;5040346;28;20041;-81
2021/08/22 00:23:46;;;;;;;9.20;2.70;;;;;;;18.03;nan;100513.31;5052270;28;20102;-80
2021/08/22 00:26:15;;;;;;;4.15;2.88;;;;;;;18.06;nan;100556.75;5037092;28;20048;-80
2021/08/22 00:28:41;;;;;;;4.10;2.70;;;;;;;18.07;nan;100563.75;5042091;28;20041;-78
2021/08/22 00:31:08;;;;;;;3.88;2.70;;;;;;;18.10;nan;100576.75;5054565;28;20037;-79
2021/08/22 00:33:34;;;;;;;3.80;2.90;;;;;;;18.06;nan;100565.59;5032903;28;20041;-80
2021/08/22 00:36:00;;;;;;;4.00;2.90;;;;;;;18.07;nan;100571.78;5035190;28;20382;-80
2021/08/22 00:38:32;;;;;;;5.43;3.00;;;;;;;18.12;nan;100558.66;5035477;28;20081;-80
2021/08/22 00:40:58;;;;;;;5.07;3.42;;;;;;;18.14;nan;100553.91;5029628;28;20037;-81
2021/08/22 00:43:24;;;;;;;4.32;3.15;;;;;;;18.11;nan;100556.97;5065906;28;20116;-80
2021/08/22 00:45:51;;;;;;;4.82;3.40;;;;;;;18.15;nan;100552.88;5049186;28;20033;-81
2021/08/22 00:48:17;;;;;;;5.43;3.50;;;;;;;18.16;nan;100551.84;5033746;28;20040;-80
2021/08/22 00:50:48;;;;;;;4.45;3.03;;;;;;;18.15;nan;100539.50;5040805;28;20091;-80
2021/08/22 00:53:14;;;;;;;4.77;3.23;;;;;;;18.13;nan;100538.88;5044306;28;20060;-81
2021/08/22 00:55:42;;;;;;;4.53;2.92;;;;;;;18.16;nan;100533.13;5040419;28;20290;-80
2021/08/22 00:58:08;;;;;;;5.60;3.17;;;;;;;18.18;nan;100523.03;5064311;28;20033;-81
2021/08/22 01:00:33;;;;;;;6.82;3.42;;;;;;;18.15;nan;100520.78;5054939;28;20098;-80
2021/08/22 01:03:35;;;;;;;4.25;3.25;;;;;;;18.10;nan;100516.03;5058679;28;20564;-81
2021/08/22 01:06:04;;;;;;;;;;;;;;;18.13;nan;100506.75;5034660;28;20037;-80
2021/08/22 01:08:42;;;;;;;5.30;3.88;;;;;;;18.09;nan;100497.47;5054946;28;19921;-80
2021/08/22 01:11:21;;;;;;;6.32;3.88;;;;;;;18.18;nan;100490.91;5048660;28;20097;-80
2021/08/22 01:13:55;;;;;;;5.50;3.72;;;;;;;18.09;nan;100468.03;5021146;28;20037;-80
2021/08/22 01:16:23;;;;;;;5.28;3.63;;;;;;;18.12;nan;100462.31;5032001;28;20031;-80
2021/08/22 01:18:52;;;;;;;6.80;3.90;;;;;;;18.06;nan;100444.38;5058054;28;20120;-81
2021/08/22 01:21:22;;;;;;;4.85;3.67;;;;;;;18.06;nan;100441.69;5056485;28;20054;-81
2021/08/22 01:24:00;;;;;;;6.30;3.95;;;;;;;18.03;nan;100443.75;5047546;28;20110;-81
2021/08/22 01:26:29;;;;;;;5.15;3.53;;;;;;;17.94;nan;100450.31;5029023;28;20049;-82
2021/08/22 01:28:59;;;;;;;5.20;3.58;;;;;;;17.91;nan;100471.31;5046799;28;20042;-81
2021/08/22 01:31:29;;;;;;;6.22;3.97;;;;;;;18.01;nan;100466.38;5045767;28;20021;-81
2021/08/22 01:33:59;;;;;;;5.13;3.53;;;;;;;17.98;nan;100446.22;5032884;28;20053;-81
2021/08/22 01:36:25;;;;;;;4.40;3.45;;;;;;;18.03;nan;100449.09;5024578;28;20037;-81
2021/08/22 01:38:53;;;;;;;5.38;3.58;;;;;;;17.98;nan;100448.88;5041515;28;20033;-81
2021/08/22 01:41:23;;;;;;;4.28;3.08;;;;;;;17.93;nan;100464.72;5032397;28;20040;-80
2021/08/22 01:43:52;;;;;;;3.97;3.00;;;;;;;17.90;nan;100473.16;5023530;28;20034;-80
2021/08/22 01:46:27;;;;;;;4.95;3.60;;;;;;;17.93;nan;100470.06;5049949;28;20041;-80
2021/08/22 01:48:54;;;;;;;5.20;3.30;;;;;;;17.92;nan;100473.75;5049246;28;20724;-80
2021/08/22 01:51:21;;;;;;;4.78;3.50;;;;;;;17.98;nan;100491.69;5025895;28;20057;-80
2021/08/22 01:53:47;;;;;;;5.47;3.85;;;;;;;18.05;nan;100491.72;5020583;28;20038;-80
2021/08/22 01:56:13;;;;;;;5.63;3.38;;;;;;;18.03;nan;100499.13;5031782;28;20133;-81
2021/08/22 01:58:39;;;;;;;5.78;3.53;;;;;;;18.04;nan;100498.94;5022694;28;20049;-80
2021/08/22 02:01:09;;;;;;;5.25;3.90;;;;;;;18.08;nan;100503.88;5042296;28;20037;-81
2021/08/22 02:04:13;;;;;;;5.28;3.70;;;;;;;18.03;nan;100497.25;5037343;28;20037;-80
2021/08/22 02:06:48;;;;;;;5.85;3.42;;;;;;;18.11;nan;100504.28;5025985;28;20040;-82
2021/08/22 02:09:20;;;;;;;4.70;4.00;;;;;;;18.15;nan;100504.72;5017636;28;20036;-80
2021/08/22 02:11:51;;;;;;;5.30;4.28;;;;;;;18.15;nan;100513.56;5047378;28;20036;-81
2021/08/22 02:14:20;;;;;;;5.43;3.88;;;;;;;18.13;nan;100522.81;5016576;28;20033;-80
2021/08/22 02:16:49;;;;;;;6.43;4.35;;;;;;;18.18;nan;100523.84;5024667;28;20037;-81
2021/08/22 02:19:20;;;;;;;5.20;3.70;;;;;;;18.20;nan;100521.00;5031804;28;20045;-80
2021/08/22 02:21:47;;;;;;;4.05;3.33;;;;;;;18.12;nan;100523.88;5025922;28;20681;-80
2021/08/22 02:24:14;;;;;;;5.45;3.85;;;;;;;18.18;nan;100526.53;5016968;28;20044;-80
2021/08/22 02:26:41;;;;;;;8.05;3.88;;;;;;;18.12;nan;100540.72;5020299;28;20075;-80
2021/08/22 02:29:07;;;;;;;6.25;3.80;;;;;;;18.15;nan;100543.00;5030066;28;20067;-80
2021/08/22 02:31:34;;;;;;;5.47;3.30;;;;;;;18.18;nan;100542.59;5042933;28;20494;-80
2021/08/22 02:34:00;;;;;;;6.18;3.75;;;;;;;18.17;nan;100534.78;5025373;28;20045;-80
2021/08/22 02:36:28;;;;;;;6.32;3.90;;;;;;;18.18;nan;100539.09;5040526;28;20124;-80
2021/08/22 02:38:54;;;;;;;4.65;3.55;;;;;;;18.20;nan;100545.06;5039111;28;20485;-80
2021/08/22 02:41:20;;;;;;;5.20;3.92;;;;;;;18.18;nan;100542.59;5054294;28;20036;-80
2021/08/22 02:43:46;;;;;;;5.15;3.60;;;;;;;18.15;nan;100551.03;5041290;28;20037;-80
2021/08/22 02:46:12;;;;;;;6.65;3.50;;;;;;;18.12;nan;100534.56;5049886;28;20029;-80
2021/08/22 02:48:38;;;;;;;7.10;4.15;;;;;;;18.15;nan;100532.28;5027104;28;20043;-79
2021/08/22 02:51:04;;;;;;;11.02;4.20;;;;;;;18.17;nan;100532.09;5039141;28;20033;-79
2021/08/22 02:53:30;;;;;;;6.53;3.70;;;;;;;18.19;nan;100536.22;5041114;28;20029;-79
2021/08/22 02:55:57;;;;;;;5.93;4.07;;;;;;;18.21;nan;100525.31;5038233;28;20049;-78
2021/08/22 02:58:23;;;;;;;6.28;3.95;;;;;;;18.19;nan;100532.72;5011090;28;20029;-78
2021/08/22 03:00:50;;;;;;;5.10;3.70;;;;;;;18.17;nan;100530.25;5020568;28;20148;-78
2021/08/22 03:03:16;;;;;;;5.72;4.10;;;;;;;18.21;nan;100530.66;5055896;28;20049;-78
2021/08/22 03:05:41;;;;;;;6.40;3.97;;;;;;;18.25;nan;100529.22;5038782;28;20037;-78
2021/08/22 03:08:07;;;;;;;7.20;3.78;;;;;;;18.23;nan;100534.81;5055854;28;20080;-78
2021/08/22 03:10:33;;;;;;;5.28;3.60;;;;;;;18.20;nan;100534.38;5053963;28;20036;-78
2021/08/22 03:12:58;;;;;;;5.18;2.90;;;;;;;18.22;nan;100530.47;5047250;28;20516;-78
2021/08/22 03:15:24;;;;;;;4.93;3.35;;;;;;;18.24;nan;100527.59;5037785;28;20030;-78
2021/08/22 03:17:49;;;;;;;5.35;3.30;;;;;;;18.29;nan;100532.34;5053127;28;20513;-78
2021/08/22 03:20:15;;;;;;;6.15;3.50;;;;;;;18.27;nan;100529.84;5056613;28;20125;-78
2021/08/22 03:22:42;;;;;;;4.40;3.10;;;;;;;18.21;nan;100531.50;5055387;28;20049;-78
2021/08/22 03:25:08;;;;;;;5.25;3.30;;;;;;;18.16;nan;100528.63;5052338;28;20035;-78
2021/08/22 03:27:33;;;;;;;4.80;3.28;;;;;;;18.20;nan;100521.81;5057331;28;20033;-78
2021/08/22 03:29:59;;;;;;;5.78;3.53;;;;;;;18.20;nan;100526.34;5034935;28;20026;-78
2021/08/22 03:32:24;;;;;;;6.85;3.13;;;;;;;18.20;nan;100534.38;5040243;28;20048;-78
2021/08/22 03:34:50;;;;;;;4.60;3.20;;;;;;;18.19;nan;100532.72;5029677;28;20042;-78
2021/08/22 03:37:15;;;;;;;5.45;3.25;;;;;;;18.23;nan;100531.28;5018602;28;20033;-78
2021/08/22 03:39:40;;;;;;;5.28;3.42;;;;;;;18.23;nan;100534.81;5044462;28;20124;-78
2021/08/22 03:42:06;;;;;;;3.78;2.95;;;;;;;18.21;nan;100536.00;5055209;28;20033;-78
2021/08/22 03:44:31;;;;;;;4.78;3.15;;;;;;;18.23;nan;100533.97;5054069;28;20047;-78
2021/08/22 03:46:56;;;;;;;4.30;3.05;;;;;;;18.19;nan;100533.56;5057460;28;20035;-78
2021/08/22 03:49:22;;;;;;;5.38;3.38;;;;;;;18.21;nan;100541.34;5041081;28;20097;-78
2021/08/22 03:51:47;;;;;;;4.10;3.17;;;;;;;18.21;nan;100538.69;5058799;28;20033;-78
2021/08/22 03:54:13;;;;;;;4.70;3.20;;;;;;;18.20;nan;100537.03;5050236;28;20093;-78
2021/08/22 03:56:38;;;;;;;4.35;3.10;;;;;;;18.14;nan;100532.47;5040757;28;20112;-78
2021/08/22 03:59:07;;;;;;;4.90;3.47;;;;;;;18.19;nan;100530.88;5039474;28;20059;-77
2021/08/22 04:01:33;;;;;;;5.47;3.30;;;;;;;18.14;nan;100530.66;5041618;28;20103;-78
2021/08/22 04:03:59;;;;;;;4.25;3.28;;;;;;;18.10;nan;100526.72;5057354;28;20545;-77
2021/08/22 04:06:25;;;;;;;3.95;2.97;;;;;;;18.08;nan;100525.28;5046473;28;20105;-78
2021/08/22 04:08:51;;;;;;;4.28;2.80;;;;;;;18.08;nan;100527.97;5021903;28;20102;-78
2021/08/22 04:11:16;;;;;;;4.10;3.00;;;;;;;18.03;nan;100526.69;5054401;28;20073;-78
2021/08/22 04:13:41;;;;;;;5.63;3.40;;;;;;;18.09;nan;100521.56;5035487;28;20064;-78
2021/08/22 04:16:07;;;;;;;4.25;3.08;;;;;;;18.10;nan;100520.56;5053997;28;20045;-77
2021/08/22 04:18:32;;;;;;;4.65;3.25;;;;;;;18.09;nan;100529.59;5062421;28;20032;-77
2021/08/22 04:20:58;;;;;;;4.00;3.10;;;;;;;18.06;nan;100527.31;5057834;28;20041;-77
2021/08/22 04:23:23;;;;;;;5.07;3.50;;;;;;;18.06;nan;100527.31;5043812;28;20598;-77
2021/08/22 04:25:49;;;;;;;4.00;3.00;;;;;;;18.09;nan;100524.25;5060542;28;20390;-78
2021/08/22 04:28:14;;;;;;;3.60;2.60;;;;;;;18.02;nan;100537.63;5061895;28;20563;-78
2021/08/22 04:30:39;;;;;;;4.00;2.88;;;;;;;17.96;nan;100535.72;5042396;28;20037;-78
2021/08/22 04:33:05;;;;;;;5.47;3.15;;;;;;;18.03;nan;100540.06;5052766;28;20120;-77
2021/08/22 04:35:30;;;;;;;4.70;3.30;;;;;;;17.93;nan;100542.31;5060409;28;20045;-77
2021/08/22 04:37:56;;;;;;;5.18;2.78;;;;;;;17.91;nan;100549.72;5044309;28;20033;-78
2021/08/22 04:40:21;;;;;;;5.30;3.28;;;;;;;17.92;nan;100553.19;5036231;28;20068;-77
2021/08/22 04:42:47;;;;;;;5.30;3.33;;;;;;;18.00;nan;100540.50;5052867;28;20041;-77
2021/08/22 04:45:12;;;;;;;5.68;3.17;;;;;;;18.07;nan;100537.00;5044362;28;20051;-79
2021/08/22 04:47:38;;;;;;;4.53;3.33;;;;;;;18.17;nan;100540.13;5056087;28;20095;-78
2021/08/22 04:50:04;;;;;;;6.20;3.33;;;;;;;18.24;nan;100549.00;5041457;28;20038;-77
2021/08/22 04:52:29;;;;;;;5.03;3.10;;;;;;;18.22;nan;100543.03;5060627;28;20040;-77
2021/08/22 04:54:55;;;;;;;5.10;3.70;;;;;;;18.26;nan;100546.97;5042220;28;20041;-76
2021/08/22 04:57:20;;;;;;;4.47;3.17;;;;;;;18.32;nan;100546.13;5042479;28;20029;-77
2021/08/22 04:59:46;;;;;;;4.30;3.20;;;;;;;18.34;nan;100549.44;5053219;28;20376;-77
2021/08/22 05:02:11;;;;;;;5.38;3.30;;;;;;;18.38;nan;100545.34;5058855;28;20037;-77
2021/08/22 05:04:36;;;;;;;5.72;3.03;;;;;;;18.37;nan;100546.34;5055483;28;20076;-77
2021/08/22 05:07:02;;;;;;;5.20;3.10;;;;;;;18.44;nan;100541.84;5057332;28;20033;-77
2021/08/22 05:09:27;;;;;;;6.22;3.40;;;;;;;18.48;nan;100539.59;5037965;28;20044;-76
2021/08/22 05:11:53;;;;;;;4.55;3.13;;;;;;;18.44;nan;100544.50;5039196;28;20224;-77
2021/08/22 05:14:18;;;;;;;4.25;3.00;;;;;;;18.47;nan;100548.63;5051284;28;20034;-77
2021/08/22 05:16:43;;;;;;;4.75;3.20;;;;;;;18.49;nan;100545.75;5050956;28;20103;-77
2021/08/22 05:19:09;;;;;;;5.25;3.10;;;;;;;18.56;nan;100544.75;5059660;28;20033;-77
2021/08/22 05:21:34;;;;;;;4.85;3.35;;;;;;;18.62;nan;100545.78;5036596;28;20041;-76
2021/08/22 05:24:00;;;;;;;5.78;3.00;;;;;;;18.62;nan;100546.63;5058995;28;20033;-76
2021/08/22 05:26:26;;;;;;;4.65;3.15;;;;;;;18.62;nan;100548.47;5053854;28;20041;-77
2021/08/22 05:28:51;;;;;;;5.70;2.97;;;;;;;18.68;nan;100556.50;5058115;28;20044;-76
2021/08/22 05:31:17;;;;;;;4.30;3.08;;;;;;;18.72;nan;100548.88;5022694;28;20029;-77
2021/08/22 05:33:44;;;;;;;4.25;3.03;;;;;;;18.64;nan;100547.25;5042906;28;20040;-77
2021/08/22 05:36:14;;;;;;;5.32;3.13;;;;;;;18.71;nan;100549.94;5042187;28;20033;-76
2021/08/22 05:38:39;;;;;;;4.30;3.15;;;;;;;18.71;nan;100547.25;5035753;28;20116;-77
2021/08/22 05:41:04;;;;;;;4.93;3.30;;;;;;;18.68;nan;100550.31;5059558;28;20048;-79
2021/08/22 05:43:30;;;;;;;5.40;3.22;;;;;;;18.67;nan;100551.38;5052621;28;20049;-77
2021/08/22 05:45:55;;;;;;;5.15;3.08;;;;;;;18.66;nan;100552.38;5027600;28;20057;-78
2021/08/22 05:48:21;;;;;;;5.18;3.42;;;;;;;18.65;nan;100564.94;5032757;28;20064;-78
2021/08/22 05:50:46;;;;;;;4.07;3.28;;;;;;;18.75;nan;100564.53;5050153;28;20044;-78
2021/08/22 05:53:11;;;;;;;4.72;3.28;;;;;;;18.75;nan;100569.09;5052526;28;20034;-78
2021/08/22 05:55:37;;;;;;;5.88;3.42;;;;;;;18.84;nan;100570.56;5037642;28;20408;-78
2021/08/22 05:58:02;;;;;;;5.15;3.42;;;;;;;18.82;nan;100573.44;5038866;28;20079;-78
2021/08/22 06:00:28;;;;;;;5.00;3.45;;;;;;;18.82;nan;100578.81;5037924;28;20123;-78
2021/08/22 06:02:53;;;;;;;5.55;3.05;;;;;;;18.77;nan;100575.91;5050502;28;20038;-78
2021/08/22 06:05:18;;;;;;;4.57;3.13;;;;;;;18.78;nan;100576.72;5059377;28;20072;-77
2021/08/22 06:07:44;;;;;;;6.20;3.17;;;;;;;18.81;nan;100577.16;5035995;28;20042;-78
2021/08/22 06:10:09;;;;;;;4.85;3.10;;;;;;;18.88;nan;100585.22;5038210;28;20037;-78
2021/08/22 06:12:35;;;;;;;5.63;3.10;;;;;;;18.87;nan;100588.91;5055865;28;20029;-77
2021/08/22 06:15:00;;;;;;;6.78;3.28;;;;;;;18.96;nan;100593.03;5043110;28;20060;-78
2021/08/22 06:17:26;;;;;;;4.95;3.28;;;;;;;19.00;nan;100590.78;5031434;28;20111;-78
2021/08/22 06:19:52;;;;;;;6.40;3.78;;;;;;;19.02;nan;100581.50;5054417;28;20124;-78
2021/08/22 06:22:18;;;;;;;4.20;3.40;;;;;;;19.07;nan;100579.03;5021989;28;20057;-78
2021/08/22 06:24:43;;;;;;;5.85;3.55;;;;;;;19.10;nan;100580.47;5055194;28;20044;-78
2021/08/22 06:27:08;;;;;;;7.25;3.55;;;;;;;19.15;nan;100585.22;5055795;28;20125;-78
2021/08/22 06:29:34;;;;;;;5.70;3.47;;;;;;;19.16;nan;100586.84;5049163;28;20156;-78
2021/08/22 06:31:59;;;;;;;5.35;3.40;;;;;;;19.11;nan;100590.16;5037004;28;20044;-77
2021/08/22 06:34:25;;;;;;;3.97;2.90;;;;;;;19.13;nan;100592.63;5050923;28;20057;-78
2021/08/22 06:36:50;;;;;;;5.65;3.70;;;;;;;19.19;nan;100602.53;5029306;28;20033;-78
2021/08/22 06:39:15;;;;;;;8.18;3.40;;;;;;;19.17;nan;100597.38;5057776;28;20033;-78
2021/08/22 06:41:41;;;;;;;5.90;3.97;;;;;;;19.20;nan;100602.31;5050761;28;20037;-78
2021/08/22 06:44:06;;;;;;;6.18;3.63;;;;;;;19.23;nan;100604.56;5048058;28;20485;-77
2021/08/22 06:46:32;;;;;;;6.53;3.67;;;;;;;19.30;nan;100605.41;5039537;28;20085;-77
2021/08/22 06:48:57;;;;;;;5.40;3.60;;;;;;;19.39;nan;100614.06;5048615;28;20034;-77
2021/08/22 06:51:23;;;;;;;5.93;3.53;;;;;;;19.48;nan;100601.28;5043462;28;20029;-77
2021/08/22 06:53:49;;;;;;;7.28;4.10;;;;;;;19.55;nan;100610.13;5056971;28;20033;-77
2021/08/22 06:56:15;;;;;;;5.75;3.85;;;;;;;19.51;nan;100608.91;5041049;28;20041;-77
2021/08/22 06:58:40;;;;;;;7.55;3.80;;;;;;;19.56;nan;100606.41;5051886;28;20030;-77
2021/08/22 07:01:06;;;;;;;5.85;3.90;;;;;;;19.60;nan;100598.78;5054741;28;20092;-77
2021/08/22 07:03:34;;;;;;;5.25;4.00;;;;;;;19.59;nan;100605.97;5058241;28;20102;-77
2021/08/22 07:05:59;;;;;;;6.35;4.00;;;;;;;19.66;nan;100609.50;5056853;28;20117;-77
2021/08/22 07:08:25;;;;;;;5.85;3.90;;;;;;;19.62;nan;100610.94;5059565;28;20036;-77
2021/08/22 07:10:51;;;;;;;5.43;3.95;;;;;;;19.73;nan;100604.97;5041830;28;20038;-77
2021/08/22 07:13:16;;;;;;;5.28;3.35;;;;;;;19.75;nan;100610.13;5031734;28;20044;-76
2021/08/22 07:15:42;;;;;;;6.47;4.20;;;;;;;19.89;nan;100617.09;5032319;28;20481;-75
2021/08/22 07:18:07;;;;;;;5.30;3.75;;;;;;;19.92;nan;100610.47;5049735;28;20343;-75
2021/08/22 07:20:32;;;;;;;6.05;4.18;;;;;;;19.85;nan;100615.88;5050306;28;20401;-76
2021/08/22 07:22:58;;;;;;;5.90;3.92;;;;;;;19.89;nan;100618.97;5050646;28;20051;-76
2021/08/22 07:25:23;;;;;;;7.93;4.40;;;;;;;20.10;nan;100626.75;5050066;28;20041;-77
2021/08/22 07:27:49;;;;;;;5.68;4.15;;;;;;;20.22;nan;100616.16;5037911;28;20460;-76
2021/08/22 07:30:15;;;;;;;7.00;4.88;;;;;;;20.40;nan;100617.31;5056761;28;20261;-78
2021/08/22 07:32:41;;;;;;;6.82;4.32;;;;;;;20.43;nan;100622.28;5053887;28;20041;-77
2021/08/22 07:35:08;;;;;;;7.05;4.75;;;;;;;20.40;nan;100626.19;5048635;28;20051;-77
2021/08/22 07:37:34;;;;;;;5.22;4.28;;;;;;;20.31;nan;100622.13;5034313;28;20037;-77
2021/08/22 07:39:59;;;;;;;7.97;5.50;;;;;;;20.28;nan;100631.41;5040707;28;20295;-77
2021/08/22 07:42:24;;;;;;;6.45;5.53;;;;;;;20.11;nan;100619.50;5049763;28;20493;-77
2021/08/22 07:44:50;;;;;;;6.88;4.72;;;;;;;20.09;nan;100618.88;5040970;28;20033;-77
2021/08/22 07:47:15;;;;;;;7.07;4.50;;;;;;;20.05;nan;100628.44;5048874;28;20038;-77
2021/08/22 07:49:41;;;;;;;6.72;5.30;;;;;;;20.11;nan;100622.19;5043533;28;20036;-77
2021/08/22 07:52:06;;;;;;;6.43;5.13;;;;;;;20.03;nan;100625.94;5035946;28;20063;-77
2021/08/22 07:54:32;;;;;;;8.55;5.55;;;;;;;20.05;nan;100631.91;5061832;28;20029;-77
2021/08/22 07:56:57;;;;;;;7.20;5.55;;;;;;;20.06;nan;100627.38;5057179;28;20080;-77
2021/08/22 07:59:22;;;;;;;7.03;5.30;;;;;;;20.07;nan;100620.94;5062038;28;20021;-76
2021/08/22 08:01:48;;;;;;;6.50;5.13;;;;;;;20.14;nan;100627.97;5059315;28;20450;-77
2021/08/22 08:04:13;;;;;;;6.32;4.75;;;;;;;20.19;nan;100635.41;5062772;28;20086;-76
2021/08/22 08:06:38;;;;;;;8.32;5.53;;;;;;;20.12;nan;100630.03;5062224;28;20060;-77
2021/08/22 08:09:04;;;;;;;7.38;5.90;;;;;;;20.11;nan;100630.25;5035732;28;20037;-76
2021/08/22 08:11:30;;;;;;;8.55;6.38;;;;;;;20.29;nan;100629.56;5055174;28;20035;-76
2021/08/22 08:13:55;;;;;;;9.60;5.50;;;;;;;20.17;nan;100625.91;5057994;28;20112;-76
2021/08/22 08:16:21;;;;;;;7.00;5.55;;;;;;;20.27;nan;100643.19;5054043;28;20133;-76
2021/08/22 08:18:46;;;;;;;7.40;5.18;;;;;;;20.28;nan;100641.31;5044651;28;20025;-76
2021/08/22 08:21:12;;;;;;;6.32;4.88;;;;;;;20.44;nan;100642.72;5052761;28;20053;-76
2021/08/22 08:23:38;;;;;;;7.20;5.47;;;;;;;20.50;nan;100640.00;5034132;28;20124;-76
2021/08/22 08:26:04;;;;;;;8.00;5.72;;;;;;;20.55;nan;100642.91;5039958;28;20053;-76
2021/08/22 08:28:31;;;;;;;8.57;5.50;;;;;;;20.68;nan;100644.69;5063504;28;20032;-76
2021/08/22 08:30:56;;;;;;;8.25;6.05;;;;;;;20.79;nan;100645.88;5061809;28;20033;-77
2021/08/22 08:33:21;;;;;;;8.02;6.30;;;;;;;20.89;nan;100645.38;5057593;28;20086;-76
2021/08/22 08:35:47;;;;;;;8.43;5.88;;;;;;;20.84;nan;100646.03;5046145;28;20037;-76
2021/08/22 08:38:12;;;;;;;8.55;6.05;;;;;;;20.84;nan;100648.72;5053820;28;20096;-77
2021/08/22 08:40:40;;;;;;;7.85;5.50;;;;;;;20.77;nan;100648.75;5060656;28;20045;-76
2021/08/22 08:43:06;;;;;;;7.18;5.55;;;;;;;20.78;nan;100642.38;5043288;28;20102;-76
2021/08/22 08:46:15;;;;;;;8.15;5.65;;;;;;;20.87;nan;100642.91;5037016;28;20123;-76
2021/08/22 08:48:50;;;;;;;8.40;5.65;;;;;;;20.97;nan;100647.81;4975432;28;20042;-76
2021/08/22 08:51:21;;;;;;;9.38;5.90;;;;;;;21.08;nan;100647.09;5022622;28;20080;-76
2021/08/22 08:53:53;;;;;;;8.82;6.35;;;;;;;21.20;nan;100644.53;5041863;28;20029;-75
2021/08/22 08:56:23;;;;;;;7.90;6.32;;;;;;;21.24;nan;100652.97;5031454;28;20140;-76
2021/08/22 08:58:48;;;;;;;7.28;5.40;;;;;;;21.16;nan;100644.13;5016637;28;20065;-77
2021/08/22 09:01:13;;;;;;;7.85;5.53;;;;;;;21.35;nan;100645.03;5032623;28;20410;-77
2021/08/22 09:04:01;;;;;;;8.25;5.75;;;;;;;21.40;nan;100645.25;5033389;28;20040;-77
2021/08/22 09:06:34;;;;;;;9.77;6.63;;;;;;;21.50;nan;100642.06;5032643;28;20041;-77
2021/08/22 09:09:31;;;;;;;9.20;6.03;;;;;;;21.49;nan;100640.38;5034207;28;20080;-78
2021/08/22 09:12:17;;;;;;;11.57;6.00;;;;;;;21.51;nan;100643.69;5033399;28;20060;-77
2021/08/22 09:15:20;;;;;;;9.18;6.70;;;;;;;21.53;nan;100644.28;5013095;28;20069;-77
2021/08/22 09:18:23;;;;;;;9.05;5.90;;;;;;;21.44;nan;100645.59;5009262;28;20087;-77
2021/08/22 09:21:26;;;;;;;12.05;6.78;;;;;;;21.46;nan;100642.72;5033685;28;20655;-76
2021/08/22 09:24:19;;;;;;;9.45;6.68;;;;;;;21.37;nan;100640.25;5032507;28;20091;-77
2021/08/22 09:27:22;;;;;;;8.45;5.93;;;;;;;21.34;nan;100637.19;5026194;28;20324;-77
2021/08/22 09:30:25;;;;;;;7.03;5.35;;;;;;;21.42;nan;100636.94;5007210;28;20045;-77
2021/08/22 09:33:23;;;;;;;8.55;6.30;;;;;;;21.52;nan;100637.25;5012718;28;20033;-78
2021/08/22 09:36:36;;;;;;;10.13;6.20;;;;;;;21.54;nan;100648.63;5024025;28;20026;-78
2021/08/22 09:39:23;;;;;;;8.40;6.65;;;;;;;21.71;nan;100651.56;4957432;28;20036;-79
2021/08/22 09:42:37;;;;;;;7.25;6.28;;;;;;;21.67;nan;100644.19;5038666;28;20080;-78
2021/08/22 09:45:40;;;;;;;8.50;6.82;;;;;;;21.68;nan;100643.94;4969545;28;20037;-78
2021/08/22 09:48:42;;;;;;;7.18;5.80;;;;;;;21.57;nan;100636.59;5009330;28;20037;-78
2021/08/22 09:51:08;;;;;;;9.27;6.55;;;;;;;21.76;nan;100630.22;5025768;28;20038;-78
2021/08/22 09:53:39;;;;;;;8.43;6.40;;;;;;;21.77;nan;100637.22;5014053;28;20037;-78
2021/08/22 09:56:26;;;;;;;8.15;6.10;;;;;;;21.70;nan;100632.97;5015653;28;20033;-77
2021/08/22 09:59:01;;;;;;;9.45;6.30;;;;;;;21.89;nan;100645.38;5031208;28;20093;-78
2021/08/22 10:01:32;;;;;;;8.43;5.70;;;;;;;21.89;nan;100648.06;5029717;28;20041;-77
2021/08/22 10:04:19;;;;;;;8.48;6.55;;;;;;;21.92;nan;100646.81;5032658;28;20034;-77
2021/08/22 10:07:03;;;;;;;8.05;6.35;;;;;;;21.83;nan;100643.56;5018358;28;20417;-77
2021/08/22 10:09:50;;;;;;;7.63;6.07;;;;;;;21.84;nan;100640.66;5032316;28;20060;-77
2021/08/22 10:12:16;;;;;;;7.93;5.88;;;;;;;22.00;nan;100635.72;5028848;28;20124;-77
2021/08/22 10:14:42;;;;;;;8.95;6.10;;;;;;;22.03;nan;100641.50;5007541;28;20037;-77
2021/08/22 10:17:08;;;;;;;8.15;6.30;;;;;;;22.03;nan;100651.44;5014150;28;20029;-77
2021/08/22 10:19:34;;;;;;;8.85;6.63;;;;;;;21.94;nan;100656.28;5013689;28;20502;-77
2021/08/22 10:22:13;;;;;;;7.82;6.43;;;;;;;21.75;nan;100650.06;5021150;28;20030;-77
2021/08/22 10:24:38;;;;;;;8.35;6.78;;;;;;;21.63;nan;100644.59;5030100;28;20049;-77
2021/08/22 10:27:07;;;;;;;8.18;6.13;;;;;;;21.36;nan;100633.25;5014364;28;20037;-77
2021/08/22 10:29:34;;;;;;;9.05;6.95;;;;;;;21.46;nan;100626.56;5013581;28;20033;-77
2021/08/22 10:32:01;;;;;;;10.60;7.05;;;;;;;21.40;nan;100620.19;5001825;28;20030;-77
2021/08/22 10:34:32;;;;;;;9.63;7.15;;;;;;;21.14;nan;100619.38;5012940;28;20041;-77
2021/08/22 10:36:58;;;;;;;8.57;6.88;;;;;;;21.07;nan;100617.75;5033145;28;20029;-77
2021/08/22 10:41:50;;;;;;;9.65;7.60;;;;;;;20.97;nan;100602.09;5033989;28;20090;-77
2021/08/22 10:44:36;;;;;;;10.30;7.47;;;;;;;20.91;nan;100606.50;5030845;28;20026;-77
2021/08/22 10:47:08;;;;;;;8.45;7.07;;;;;;;20.87;nan;100591.84;5013419;28;20060;-76
2021/08/22 10:49:52;;;;;;;10.90;7.40;;;;;;;20.88;nan;100596.19;5010149;28;20067;-77
2021/08/22 10:52:30;;;;;;;7.40;6.45;;;;;;;20.78;nan;100598.50;5034559;28;20036;-76
2021/08/22 10:55:14;;;;;;;7.22;5.57;;;;;;;20.82;nan;100599.72;5014345;28;20061;-77
2021/08/22 10:57:43;;;;;;;7.22;5.72;;;;;;;20.85;nan;100595.78;5012212;28;20394;-77
2021/08/22 11:00:29;;;;;;;8.18;5.85;;;;;;;20.97;nan;100588.66;5012756;28;20550;-77
2021/08/22 11:03:06;;;;;;;7.10;5.90;;;;;;;21.05;nan;100603.72;5012932;28;20510;-77
2021/08/22 11:05:35;;;;;;;6.93;5.55;;;;;;;21.10;nan;100602.00;5030589;28;20041;-78
2021/08/22 11:08:18;;;;;;;7.10;5.68;;;;;;;21.17;nan;100594.72;5013015;28;20053;-77
2021/08/22 11:11:04;;;;;;;6.78;5.30;;;;;;;21.19;nan;100595.31;5030298;28;20128;-77
2021/08/22 11:13:31;;;;;;;7.43;5.70;;;;;;;21.28;nan;100595.84;5009903;28;20029;-77
2021/08/22 11:16:07;;;;;;;7.63;5.22;;;;;;;21.38;nan;100596.19;5028058;28;20034;-77
2021/08/22 11:18:37;;;;;;;6.65;5.25;;;;;;;21.42;nan;100600.09;5029344;28;20036;-77
2021/08/22 11:21:03;;;;;;;6.97;5.70;;;;;;;21.55;nan;100604.53;5029572;28;20037;-77
2021/08/22 11:23:29;;;;;;;8.13;5.15;;;;;;;21.61;nan;100595.56;5029913;28;20510;-77
2021/08/22 11:26:06;;;;;;;5.80;4.80;;;;;;;21.72;nan;100594.00;5030165;28;20036;-78
2021/08/22 11:28:32;;;;;;;5.65;4.72;;;;;;;21.77;nan;100593.34;5029979;28;20034;-77
2021/08/22 11:30:57;;;;;;;6.15;4.50;;;;;;;21.91;nan;100588.63;5029395;28;20110;-77
2021/08/22 11:33:26;;;;;;;5.72;4.80;;;;;;;22.11;nan;100602.66;5003037;28;20038;-77
2021/08/22 11:35:52;;;;;;;6.22;5.20;;;;;;;22.21;nan;100602.97;4998978;28;20029;-77
2021/08/22 11:38:17;;;;;;;6.50;5.05;;;;;;;22.34;nan;100595.78;5029353;28;20581;-76
2021/08/22 11:40:44;;;;;;;5.53;4.38;;;;;;;22.44;nan;100604.13;5029634;28;20037;-77
2021/08/22 11:43:10;;;;;;;7.70;5.07;;;;;;;22.41;nan;100600.03;5023819;28;20037;-77
2021/08/22 11:45:39;;;;;;;6.18;4.38;;;;;;;22.50;nan;100591.63;5035293;28;20394;-77
2021/08/22 11:48:06;;;;;;;5.78;4.40;;;;;;;22.53;nan;100591.19;5018706;28;20387;-77
2021/08/22 11:50:36;;;;;;;6.53;4.97;;;;;;;22.60;nan;100590.03;5013632;28;20658;-78
2021/08/22 11:53:04;;;;;;;5.88;4.50;;;;;;;22.55;nan;100587.19;5047274;28;20065;-77
2021/08/22 11:55:32;;;;;;;6.10;4.57;;;;;;;22.55;nan;100578.28;5022093;28;20029;-77